Terminal Aerodrome Forecast
Issued by NWS

Home | Current Version | Previous Version | Text Only | Print | Product List | Glossary On
Versions: 1 2 3 4 5 6 7 8 9 10 11 12 13 14
000
FTUS43 KDTX 211129
TAFDET
TAF
KDET 211129Z 2112/2212 24012G20KT P6SM FEW035 BKN070
     FM211400 24016G26KT P6SM BKN080
     FM211600 24022G32KT P6SM SCT050 BKN070
      TEMPO 2117/2121 25024G38KT 6SM SHRA BKN040 OVC060
     FM220000 22014KT P6SM BKN060
      TEMPO 2203/2206 6SM -SHRA BKN030
     FM220600 24008KT P6SM SCT030 BKN050=

USA.gov is the U.S. government's official web portal to all federal, state and local government web resources and services.